Time;durP1;ratioP1;P1;durP2;ratioP2;P2;SDS_P1;SDS_P2;PMS_P1;PMS_P2;Temp;Humidity;BMP_temperature;BMP_pressure;BME280_temperature;BME280_humidity;BME280_pressure;Samples;Min_cycle;Max_cycle;Signal;HPM_P1;HPM_P2
2022/03/25 02:04:24;;;;;;;72.63;33.03;;;;;;;;;;7373133;19;20022;-74
2022/03/25 02:07:34;;;;;;;71.75;35.00;;;;;;;;;;7362852;19;20676;-84
2022/03/25 02:10:00;;;;;;;71.85;33.72;;;;;;;;;;7335086;19;20023;-82
2022/03/25 02:12:25;;;;;;;70.38;34.25;;;;;;;;;;7364159;19;20015;-82
2022/03/25 02:14:51;;;;;;;68.22;33.17;;;;;;;;;;7364006;19;20006;-81
2022/03/25 02:17:16;;;;;;;68.13;34.08;;;;;;;;;;7367371;19;20613;-84
2022/03/25 02:19:41;;;;;;;75.35;34.22;;;;;;;;;;7381322;19;20014;-81
2022/03/25 02:22:08;;;;;;;67.15;33.53;;;;;;;;;;7376819;19;20019;-81
2022/03/25 02:24:33;;;;;;;73.10;34.58;;;;;;;;;;7378502;19;20022;-85
2022/03/25 02:26:59;;;;;;;70.28;34.67;;;;;;;;;;7384914;19;20010;-80
2022/03/25 02:29:25;;;;;;;77.68;35.85;;;;;;;;;;7388501;19;20011;-82
2022/03/25 02:31:50;;;;;;;70.28;36.03;;;;;;;;;;7381848;19;20477;-84
2022/03/25 02:34:15;;;;;;;72.30;36.47;;;;;;;;;;7377061;19;20774;-84
2022/03/25 02:36:41;;;;;;;79.55;36.40;;;;;;;;;;7377948;19;20275;-85
2022/03/25 02:39:07;;;;;;;79.13;38.17;;;;;;;;;;7388183;19;20489;-81
2022/03/25 02:41:32;;;;;;;80.85;38.45;;;;;;;;;;7379178;19;20031;-84
2022/03/25 02:43:59;;;;;;;76.53;38.60;;;;;;;;;;7378920;19;20525;-84
2022/03/25 02:46:24;;;;;;;91.82;38.30;;;;;;;;;;7388072;19;20006;-82
2022/03/25 02:48:49;;;;;;;72.05;36.90;;;;;;;;;;7379795;19;20041;-83
2022/03/25 02:51:14;;;;;;;86.18;37.85;;;;;;;;;;7386406;19;20097;-82
2022/03/25 02:53:40;;;;;;;78.32;37.22;;;;;;;;;;7382316;19;20793;-82
2022/03/25 02:56:05;;;;;;;84.72;38.05;;;;;;;;;;7385564;19;20002;-82
2022/03/25 02:58:30;;;;;;;76.93;37.10;;;;;;;;;;7379428;19;20073;-85
2022/03/25 03:00:55;;;;;;;70.50;36.50;;;;;;;;;;7382433;19;20054;-82
2022/03/25 03:03:21;;;;;;;73.22;35.45;;;;;;;;;;7378143;19;20260;-84
2022/03/25 03:05:46;;;;;;;79.18;35.65;;;;;;;;;;7386271;19;20304;-82
2022/03/25 03:08:13;;;;;;;73.20;37.22;;;;;;;;;;7379458;19;20013;-82
2022/03/25 03:10:38;;;;;;;82.78;39.25;;;;;;;;;;7383372;19;20031;-85
2022/03/25 03:13:04;;;;;;;74.45;37.25;;;;;;;;;;7376453;19;20438;-84
2022/03/25 03:15:29;;;;;;;73.78;37.22;;;;;;;;;;7386895;19;20034;-85
2022/03/25 03:17:54;;;;;;;78.05;37.08;;;;;;;;;;7377679;19;20042;-85
2022/03/25 03:20:20;;;;;;;75.65;37.38;;;;;;;;;;7386129;19;20089;-81
2022/03/25 03:22:45;;;;;;;79.75;39.25;;;;;;;;;;7386558;19;20021;-83
2022/03/25 03:25:11;;;;;;;81.38;38.83;;;;;;;;;;7385510;19;20013;-84
2022/03/25 03:27:37;;;;;;;79.80;37.92;;;;;;;;;;7375882;19;20010;-82
2022/03/25 03:30:03;;;;;;;76.38;37.08;;;;;;;;;;7385024;19;20485;-84
2022/03/25 03:32:28;;;;;;;81.25;36.83;;;;;;;;;;7371369;19;20648;-83
2022/03/25 03:34:54;;;;;;;72.93;36.92;;;;;;;;;;7377991;19;20311;-85
2022/03/25 03:37:19;;;;;;;78.50;38.70;;;;;;;;;;7380417;19;20077;-81
2022/03/25 03:39:44;;;;;;;74.05;36.63;;;;;;;;;;7381264;19;20019;-87
2022/03/25 03:42:09;;;;;;;80.72;38.95;;;;;;;;;;7377434;19;20552;-83
2022/03/25 03:44:36;;;;;;;73.63;36.22;;;;;;;;;;7383977;19;20021;-82
2022/03/25 03:47:02;;;;;;;77.55;39.35;;;;;;;;;;7368249;19;20102;-85
2022/03/25 03:49:27;;;;;;;78.70;37.58;;;;;;;;;;7380444;19;20007;-81
2022/03/25 03:51:52;;;;;;;80.18;38.38;;;;;;;;;;7378160;19;20023;-82
2022/03/25 03:54:17;;;;;;;76.57;37.77;;;;;;;;;;7374777;19;20432;-82
2022/03/25 03:56:43;;;;;;;79.50;37.45;;;;;;;;;;7365605;19;20267;-83
2022/03/25 03:59:08;;;;;;;77.97;38.58;;;;;;;;;;7379209;19;20007;-85
2022/03/25 04:01:33;;;;;;;74.75;37.22;;;;;;;;;;7381742;19;20022;-82
2022/03/25 04:03:58;;;;;;;79.40;39.00;;;;;;;;;;7373169;19;20575;-80
2022/03/25 04:06:23;;;;;;;81.53;37.35;;;;;;;;;;7367380;19;20014;-82
2022/03/25 04:08:49;;;;;;;77.85;37.35;;;;;;;;;;7382260;19;20126;-82
2022/03/25 04:11:14;;;;;;;79.95;38.30;;;;;;;;;;7384313;19;20353;-82
2022/03/25 04:13:39;;;;;;;77.90;38.70;;;;;;;;;;7378827;19;20010;-82
2022/03/25 04:16:04;;;;;;;80.90;38.58;;;;;;;;;;7379383;19;20082;-86
2022/03/25 04:18:30;;;;;;;79.63;37.97;;;;;;;;;;7377894;19;20034;-82
2022/03/25 04:20:55;;;;;;;83.32;37.33;;;;;;;;;;7383004;19;20030;-81
2022/03/25 04:23:20;;;;;;;79.70;38.78;;;;;;;;;;7384930;19;20025;-81
2022/03/25 04:25:45;;;;;;;83.85;40.20;;;;;;;;;;7375321;19;20726;-82
2022/03/25 04:28:10;;;;;;;75.45;37.00;;;;;;;;;;7376244;19;20007;-80
2022/03/25 04:30:37;;;;;;;75.97;36.45;;;;;;;;;;7380930;19;20010;-83
2022/03/25 04:33:03;;;;;;;78.00;37.55;;;;;;;;;;7380148;19;20011;-82
2022/03/25 04:35:28;;;;;;;77.65;37.25;;;;;;;;;;7384738;19;20477;-82
2022/03/25 04:37:54;;;;;;;75.70;37.85;;;;;;;;;;7383052;19;20066;-82
2022/03/25 04:40:20;;;;;;;85.55;39.50;;;;;;;;;;7377672;19;20014;-84
2022/03/25 04:42:45;;;;;;;73.18;34.97;;;;;;;;;;7376539;19;20010;-81
2022/03/25 04:45:10;;;;;;;77.28;37.83;;;;;;;;;;7378718;19;20024;-84
2022/03/25 04:47:36;;;;;;;77.53;38.08;;;;;;;;;;7376902;19;20023;-84
2022/03/25 04:50:02;;;;;;;85.28;39.60;;;;;;;;;;7384379;19;20029;-81
2022/03/25 04:52:27;;;;;;;77.78;37.33;;;;;;;;;;7371321;19;20010;-82
2022/03/25 04:54:52;;;;;;;83.20;37.25;;;;;;;;;;7382872;19;20006;-84
2022/03/25 04:57:17;;;;;;;80.72;38.42;;;;;;;;;;7380271;19;20394;-81
2022/03/25 04:59:42;;;;;;;78.67;37.23;;;;;;;;;;7368265;19;19995;-84
2022/03/25 05:02:09;;;;;;;78.78;36.78;;;;;;;;;;7369378;19;23683;-82
2022/03/25 05:04:34;;;;;;;83.05;38.67;;;;;;;;;;7382380;19;20449;-81
2022/03/25 05:07:00;;;;;;;75.85;36.00;;;;;;;;;;7378565;19;20031;-86
2022/03/25 05:09:25;;;;;;;83.63;39.28;;;;;;;;;;7381369;19;20003;-81
2022/03/25 05:11:50;;;;;;;79.60;37.40;;;;;;;;;;7377802;19;20022;-79
2022/03/25 05:14:16;;;;;;;81.68;38.42;;;;;;;;;;7388254;19;20006;-82
2022/03/25 05:16:41;;;;;;;77.63;36.28;;;;;;;;;;7390482;19;20010;-84
2022/03/25 05:19:06;;;;;;;84.00;39.55;;;;;;;;;;7378720;19;19999;-84
2022/03/25 05:21:32;;;;;;;82.47;39.35;;;;;;;;;;7389899;19;20335;-82
2022/03/25 05:23:57;;;;;;;81.55;39.03;;;;;;;;;;7383084;19;20010;-82
2022/03/25 05:26:22;;;;;;;79.37;39.00;;;;;;;;;;7386575;19;20270;-82
2022/03/25 05:28:47;;;;;;;81.57;39.05;;;;;;;;;;7382818;19;20640;-85
2022/03/25 05:31:13;;;;;;;82.90;39.25;;;;;;;;;;7382514;19;20030;-83
2022/03/25 05:33:38;;;;;;;80.57;36.92;;;;;;;;;;7369145;19;20072;-86
2022/03/25 05:36:04;;;;;;;81.15;36.58;;;;;;;;;;7387100;19;20354;-86
2022/03/25 05:38:30;;;;;;;81.88;37.85;;;;;;;;;;7390508;19;20345;-84
2022/03/25 05:40:55;;;;;;;82.40;38.40;;;;;;;;;;7386277;19;20010;-85
2022/03/25 05:43:20;;;;;;;83.22;37.92;;;;;;;;;;7375849;19;20412;-84
2022/03/25 05:45:46;;;;;;;81.25;38.45;;;;;;;;;;7386888;19;20365;-85
2022/03/25 05:48:11;;;;;;;85.47;38.50;;;;;;;;;;7373603;19;20446;-86
2022/03/25 05:50:36;;;;;;;70.03;35.20;;;;;;;;;;7375996;19;20002;-86
2022/03/25 05:53:01;;;;;;;80.85;37.58;;;;;;;;;;7388681;19;20015;-84
2022/03/25 05:55:27;;;;;;;79.10;38.88;;;;;;;;;;7373589;19;20062;-85
2022/03/25 05:57:52;;;;;;;74.93;35.90;;;;;;;;;;7378390;19;20318;-85
2022/03/25 06:00:17;;;;;;;82.40;39.15;;;;;;;;;;7350639;19;20457;-85
2022/03/25 06:02:43;;;;;;;76.25;38.08;;;;;;;;;;7356873;19;20134;-84
2022/03/25 06:05:08;;;;;;;87.50;38.45;;;;;;;;;;7381692;19;20025;-85
2022/03/25 06:07:35;;;;;;;76.75;38.33;;;;;;;;;;7369593;19;20030;-85
2022/03/25 06:10:00;;;;;;;72.22;36.50;;;;;;;;;;7370620;19;20468;-85
2022/03/25 06:12:25;;;;;;;74.28;36.78;;;;;;;;;;7363500;19;20033;-87
2022/03/25 06:14:50;;;;;;;80.90;38.67;;;;;;;;;;7365089;19;20006;-85
2022/03/25 06:17:16;;;;;;;75.93;36.80;;;;;;;;;;7375333;19;20853;-86
2022/03/25 06:19:41;;;;;;;76.55;37.15;;;;;;;;;;7386101;19;20355;-86
2022/03/25 06:22:06;;;;;;;88.55;39.22;;;;;;;;;;7367767;19;20090;-86
2022/03/25 06:24:31;;;;;;;76.97;36.85;;;;;;;;;;7380876;19;20255;-89
2022/03/25 06:26:56;;;;;;;78.07;39.08;;;;;;;;;;7383120;19;20010;-86
2022/03/25 06:29:21;;;;;;;81.37;36.83;;;;;;;;;;7380041;19;20003;-87
2022/03/25 06:31:47;;;;;;;86.97;39.95;;;;;;;;;;7382018;19;20790;-87
2022/03/25 06:34:12;;;;;;;78.88;37.97;;;;;;;;;;7369044;19;20332;-87
2022/03/25 06:36:38;;;;;;;77.50;37.70;;;;;;;;;;7385038;19;20536;-84
2022/03/25 06:39:03;;;;;;;69.50;36.75;;;;;;;;;;7375529;19;20007;-89
2022/03/25 06:41:28;;;;;;;83.03;38.97;;;;;;;;;;7374795;19;19999;-88
2022/03/25 06:43:54;;;;;;;78.68;39.13;;;;;;;;;;7377863;19;20749;-86
2022/03/25 06:46:19;;;;;;;77.53;38.50;;;;;;;;;;7370922;19;20519;-88
2022/03/25 06:48:45;;;;;;;84.60;39.47;;;;;;;;;;7360119;19;20017;-90
2022/03/25 06:51:10;;;;;;;82.55;40.85;;;;;;;;;;7360354;19;20063;-89
2022/03/25 06:53:36;;;;;;;77.47;38.67;;;;;;;;;;7359999;19;20006;-91
2022/03/25 06:56:01;;;;;;;74.72;38.58;;;;;;;;;;7383629;19;20018;-88
2022/03/25 06:58:27;;;;;;;78.90;39.83;;;;;;;;;;7381488;19;20014;-87
2022/03/25 07:00:52;;;;;;;90.75;42.92;;;;;;;;;;7380554;19;20007;-89
2022/03/25 07:03:18;;;;;;;139.55;62.03;;;;;;;;;;7380517;19;20007;-89
2022/03/25 07:05:43;;;;;;;107.20;49.85;;;;;;;;;;7382373;19;20083;-90
2022/03/25 07:08:09;;;;;;;116.05;55.90;;;;;;;;;;7383656;19;20017;-89
2022/03/25 07:10:34;;;;;;;119.57;56.28;;;;;;;;;;7363324;19;20047;-85
2022/03/25 07:13:00;;;;;;;130.23;59.42;;;;;;;;;;7366861;19;20022;-90
2022/03/25 07:15:25;;;;;;;111.47;52.60;;;;;;;;;;7370203;19;20030;-86
2022/03/25 07:17:52;;;;;;;144.10;62.25;;;;;;;;;;7374243;19;20002;-89
2022/03/25 07:20:18;;;;;;;163.60;70.18;;;;;;;;;;7388152;19;20023;-86
2022/03/25 07:22:44;;;;;;;176.27;78.43;;;;;;;;;;7375663;19;20023;-86
2022/03/25 07:25:10;;;;;;;153.95;71.50;;;;;;;;;;7381896;19;20453;-86
2022/03/25 07:27:35;;;;;;;177.65;80.57;;;;;;;;;;7384200;19;20018;-86
2022/03/25 07:30:00;;;;;;;170.98;78.13;;;;;;;;;;7375417;19;20098;-87
2022/03/25 07:32:26;;;;;;;149.27;70.63;;;;;;;;;;7380838;19;20029;-85
2022/03/25 07:34:51;;;;;;;143.93;68.13;;;;;;;;;;7384777;19;20006;-86
2022/03/25 07:37:16;;;;;;;123.03;60.65;;;;;;;;;;7378938;19;20011;-84
2022/03/25 07:39:42;;;;;;;96.55;50.28;;;;;;;;;;7373977;19;20015;-85
2022/03/25 07:42:07;;;;;;;99.72;50.22;;;;;;;;;;7383603;19;20003;-88
2022/03/25 07:44:34;;;;;;;117.97;56.28;;;;;;;;;;7376570;19;20130;-90
2022/03/25 07:46:59;;;;;;;102.82;51.95;;;;;;;;;;7370046;19;20006;-85
2022/03/25 07:49:24;;;;;;;95.07;44.85;;;;;;;;;;7382422;19;20013;-86
2022/03/25 07:51:50;;;;;;;84.40;45.03;;;;;;;;;;7387162;19;20017;-86
2022/03/25 07:54:16;;;;;;;84.57;42.63;;;;;;;;;;7380610;19;20014;-86
2022/03/25 07:56:41;;;;;;;83.25;42.33;;;;;;;;;;7381076;19;20108;-86
2022/03/25 07:59:08;;;;;;;77.05;41.42;;;;;;;;;;7378713;19;20006;-86
2022/03/25 08:01:33;;;;;;;75.38;38.38;;;;;;;;;;7381880;19;20025;-86
2022/03/25 08:03:58;;;;;;;67.38;34.00;;;;;;;;;;7372265;19;20014;-86
2022/03/25 08:06:24;;;;;;;57.53;30.60;;;;;;;;;;7375281;19;20031;-87
2022/03/25 08:08:49;;;;;;;58.22;24.58;;;;;;;;;;7376907;19;20014;-84
2022/03/25 08:11:17;;;;;;;46.70;23.52;;;;;;;;;;7378208;19;20540;-86
2022/03/25 08:13:42;;;;;;;43.80;21.42;;;;;;;;;;7379998;19;20006;-88
2022/03/25 08:16:08;;;;;;;43.70;19.83;;;;;;;;;;7374038;19;20026;-85
2022/03/25 08:18:33;;;;;;;40.63;19.35;;;;;;;;;;7356532;19;20027;-86
2022/03/25 08:20:59;;;;;;;42.95;18.33;;;;;;;;;;7371302;19;20109;-85
2022/03/25 08:28:54;;;;;;;40.35;17.70;;;;;;;;;;7371650;19;20017;-88
2022/03/25 08:31:19;;;;;;;33.50;17.40;;;;;;;;;;7373858;19;20014;-88
2022/03/25 08:33:45;;;;;;;38.05;18.27;;;;;;;;;;7373435;19;20066;-88
2022/03/25 08:36:10;;;;;;;37.60;17.67;;;;;;;;;;7376648;19;20019;-89
2022/03/25 08:38:35;;;;;;;35.80;16.05;;;;;;;;;;7378309;19;20003;-90
2022/03/25 08:41:00;;;;;;;37.13;17.77;;;;;;;;;;7381017;19;20011;-88
2022/03/25 08:43:26;;;;;;;32.97;17.05;;;;;;;;;;7382637;19;20486;-88
2022/03/25 08:45:51;;;;;;;37.17;16.77;;;;;;;;;;7381584;19;20010;-88
2022/03/25 08:48:16;;;;;;;36.40;16.98;;;;;;;;;;7374286;19;20033;-89
2022/03/25 08:50:42;;;;;;;40.53;18.43;;;;;;;;;;7379653;19;20010;-88
2022/03/25 08:53:07;;;;;;;40.03;18.73;;;;;;;;;;7383375;19;20267;-88
2022/03/25 08:55:32;;;;;;;42.25;19.88;;;;;;;;;;7377362;19;20283;-88
2022/03/25 08:57:57;;;;;;;33.65;17.52;;;;;;;;;;7378071;19;20012;-88
2022/03/25 09:00:23;;;;;;;35.27;19.13;;;;;;;;;;7380505;19;20003;-88
2022/03/25 09:02:48;;;;;;;39.78;17.80;;;;;;;;;;7380888;19;20303;-88
2022/03/25 09:05:13;;;;;;;46.40;19.92;;;;;;;;;;7383466;19;20017;-86
2022/03/25 09:07:40;;;;;;;33.72;17.90;;;;;;;;;;7378933;19;20038;-88
2022/03/25 09:10:06;;;;;;;39.90;18.73;;;;;;;;;;7384845;19;20014;-87
2022/03/25 09:12:32;;;;;;;41.47;18.95;;;;;;;;;;7380538;19;20525;-90
2022/03/25 09:14:57;;;;;;;38.92;17.35;;;;;;;;;;7384522;19;20078;-89
2022/03/25 09:17:22;;;;;;;34.87;18.10;;;;;;;;;;7375141;19;20407;-91
2022/03/25 09:19:47;;;;;;;41.00;19.70;;;;;;;;;;7380376;19;20286;-89
2022/03/25 09:22:13;;;;;;;38.97;19.50;;;;;;;;;;7381541;19;20790;-88
2022/03/25 09:24:38;;;;;;;40.47;18.63;;;;;;;;;;7384013;19;20010;-88
2022/03/25 09:27:03;;;;;;;33.17;19.17;;;;;;;;;;7381819;19;20591;-88
2022/03/25 09:29:28;;;;;;;34.88;18.63;;;;;;;;;;7374559;19;20024;-89
2022/03/25 09:31:54;;;;;;;37.85;18.05;;;;;;;;;;7379390;19;20021;-89
2022/03/25 09:37:03;;;;;;;40.67;18.30;;;;;;;;;;7384738;19;20023;-89
2022/03/25 09:39:28;;;;;;;38.53;18.25;;;;;;;;;;7385356;19;20010;-89
2022/03/25 09:41:54;;;;;;;37.25;17.95;;;;;;;;;;7383481;19;20013;-89
2022/03/25 09:44:19;;;;;;;36.85;16.75;;;;;;;;;;7377616;19;20029;-88
2022/03/25 09:46:44;;;;;;;33.83;15.38;;;;;;;;;;7381958;19;20090;-88
2022/03/25 09:49:10;;;;;;;28.60;15.33;;;;;;;;;;7378625;19;20010;-88
2022/03/25 09:51:36;;;;;;;34.45;15.27;;;;;;;;;;7383172;19;20007;-89
2022/03/25 09:54:01;;;;;;;28.23;13.48;;;;;;;;;;7385417;19;20021;-88
2022/03/25 09:56:27;;;;;;;32.10;13.30;;;;;;;;;;7370806;19;20007;-86
2022/03/25 09:58:52;;;;;;;28.63;13.63;;;;;;;;;;7381253;19;20019;-89
2022/03/25 10:01:17;;;;;;;31.70;13.38;;;;;;;;;;7387692;19;20022;-89
2022/03/25 10:03:43;;;;;;;23.25;12.20;;;;;;;;;;7385677;19;20011;-89
2022/03/25 10:06:10;;;;;;;33.13;13.07;;;;;;;;;;7386397;19;20318;-89
2022/03/25 10:08:38;;;;;;;34.28;13.82;;;;;;;;;;7391482;19;20013;-89
2022/03/25 10:11:18;;;;;;;29.30;12.73;;;;;;;;;;7385036;19;20094;-89
2022/03/25 10:13:44;;;;;;;31.95;12.80;;;;;;;;;;7376210;19;20341;-90
2022/03/25 10:16:45;;;;;;;32.30;13.90;;;;;;;;;;7390213;19;20518;-89
2022/03/25 10:19:11;;;;;;;26.75;12.10;;;;;;;;;;7374582;19;20003;-90
2022/03/25 10:21:59;;;;;;;29.85;13.30;;;;;;;;;;7385656;19;20914;-91
2022/03/25 10:24:37;;;;;;;30.17;14.65;;;;;;;;;;7387053;19;20115;-90
2022/03/25 10:27:04;;;;;;;34.60;13.05;;;;;;;;;;7384114;19;20017;-89
2022/03/25 10:29:29;;;;;;;27.73;12.82;;;;;;;;;;7390467;19;20022;-89
2022/03/25 10:32:05;;;;;;;27.40;11.93;;;;;;;;;;7375085;19;20116;-90
2022/03/25 10:34:31;;;;;;;30.63;12.80;;;;;;;;;;7386684;19;20275;-90
2022/03/25 10:37:00;;;;;;;26.10;12.18;;;;;;;;;;7387641;19;20021;-85
2022/03/25 10:39:29;;;;;;;34.97;11.60;;;;;;;;;;7389768;19;20589;-89
2022/03/25 10:41:57;;;;;;;34.80;12.40;;;;;;;;;;7382304;19;20664;-86
2022/03/25 10:44:32;;;;;;;32.35;14.02;;;;;;;;;;7385360;19;20013;-83
2022/03/25 10:46:57;;;;;;;28.70;12.95;;;;;;;;;;7384262;19;20493;-89
2022/03/25 10:49:22;;;;;;;30.35;12.38;;;;;;;;;;7384027;19;20010;-86
2022/03/25 10:51:52;;;;;;;28.87;13.97;;;;;;;;;;7386336;19;20319;-85
2022/03/25 10:54:21;;;;;;;28.33;14.45;;;;;;;;;;7384624;19;20026;-84
2022/03/25 10:56:51;;;;;;;30.33;14.27;;;;;;;;;;7384301;19;20025;-84
2022/03/25 10:59:29;;;;;;;30.98;14.32;;;;;;;;;;7388160;19;20680;-89
2022/03/25 11:01:59;;;;;;;28.77;14.18;;;;;;;;;;7382501;19;20017;-86
2022/03/25 11:04:24;;;;;;;37.85;14.55;;;;;;;;;;7388737;19;20010;-87
2022/03/25 11:06:50;;;;;;;31.55;13.50;;;;;;;;;;7386004;19;20365;-86
2022/03/25 11:09:16;;;;;;;28.65;13.82;;;;;;;;;;7378170;19;20588;-88
2022/03/25 11:11:42;;;;;;;29.70;13.82;;;;;;;;;;7387463;19;20017;-85
2022/03/25 11:14:08;;;;;;;36.60;14.95;;;;;;;;;;7387088;19;20033;-88
2022/03/25 11:16:35;;;;;;;37.58;15.13;;;;;;;;;;7384921;19;20006;-85
2022/03/25 11:19:01;;;;;;;40.58;14.48;;;;;;;;;;7382598;19;20014;-86
2022/03/25 11:21:26;;;;;;;34.38;13.95;;;;;;;;;;7390128;19;20496;-85
2022/03/25 11:23:53;;;;;;;35.45;14.85;;;;;;;;;;7386615;19;20019;-84
2022/03/25 11:26:20;;;;;;;37.00;14.98;;;;;;;;;;7380270;19;20010;-85
2022/03/25 11:28:49;;;;;;;41.20;16.00;;;;;;;;;;7383814;19;20047;-85
2022/03/25 11:31:15;;;;;;;36.55;15.30;;;;;;;;;;7374944;19;20109;-87
2022/03/25 11:33:59;;;;;;;26.80;13.68;;;;;;;;;;7378318;19;20006;-84
2022/03/25 11:36:25;;;;;;;32.70;14.55;;;;;;;;;;7368915;19;20002;-82
2022/03/25 11:39:10;;;;;;;34.22;14.80;;;;;;;;;;7378349;19;20359;-90
2022/03/25 11:41:35;;;;;;;31.50;15.75;;;;;;;;;;7385414;19;20011;-86
2022/03/25 11:44:16;;;;;;;34.30;16.20;;;;;;;;;;7385315;19;20007;-85
2022/03/25 11:47:00;;;;;;;33.85;16.10;;;;;;;;;;7381838;19;20006;-86
2022/03/25 11:49:26;;;;;;;37.88;17.77;;;;;;;;;;7384933;19;20010;-88
2022/03/25 11:51:52;;;;;;;32.50;17.15;;;;;;;;;;7389021;19;20014;-90
2022/03/25 11:54:36;;;;;;;38.90;17.83;;;;;;;;;;7379830;19;20002;-84
2022/03/25 11:57:02;;;;;;;35.55;18.40;;;;;;;;;;7384691;19;20010;-87
2022/03/25 11:59:45;;;;;;;33.50;17.17;;;;;;;;;;7379485;19;20393;-86
2022/03/25 12:02:25;;;;;;;33.13;16.30;;;;;;;;;;7370613;19;22462;-89
2022/03/25 12:04:50;;;;;;;34.50;17.23;;;;;;;;;;7382712;19;20504;-90
2022/03/25 12:07:16;;;;;;;36.47;18.27;;;;;;;;;;7384288;19;20010;-88
2022/03/25 12:09:43;;;;;;;41.60;21.10;;;;;;;;;;7380175;19;20014;-87
2022/03/25 12:12:09;;;;;;;37.40;19.08;;;;;;;;;;7376605;19;20006;-87
2022/03/25 12:14:36;;;;;;;40.90;19.13;;;;;;;;;;7379072;19;20013;-87
2022/03/25 12:17:06;;;;;;;39.40;21.20;;;;;;;;;;7380879;19;20011;-86
2022/03/25 12:19:39;;;;;;;53.85;22.58;;;;;;;;;;7376699;19;20450;-88
2022/03/25 12:22:19;;;;;;;41.45;20.15;;;;;;;;;;7382453;19;20006;-88
2022/03/25 12:24:45;;;;;;;37.80;18.63;;;;;;;;;;7378140;19;20834;-86
2022/03/25 12:27:10;;;;;;;38.33;19.55;;;;;;;;;;7363216;19;20011;-85
2022/03/25 12:29:36;;;;;;;41.42;19.70;;;;;;;;;;7379665;19;20011;-84
2022/03/25 12:32:03;;;;;;;41.90;22.33;;;;;;;;;;7365968;19;20030;-86
2022/03/25 12:34:48;;;;;;;43.45;21.55;;;;;;;;;;7373781;19;20011;-86
2022/03/25 12:37:20;;;;;;;39.83;22.08;;;;;;;;;;7382545;19;20018;-86
2022/03/25 12:39:45;;;;;;;41.65;21.60;;;;;;;;;;7374073;19;20038;-84
2022/03/25 12:42:11;;;;;;;38.97;20.30;;;;;;;;;;7360282;19;19999;-90
2022/03/25 12:44:36;;;;;;;44.20;20.58;;;;;;;;;;7366890;19;20363;-87
2022/03/25 12:47:02;;;;;;;40.72;20.48;;;;;;;;;;7374716;19;19995;-91
2022/03/25 12:49:28;;;;;;;41.47;21.58;;;;;;;;;;7368503;19;20021;-84
2022/03/25 12:51:56;;;;;;;41.80;22.35;;;;;;;;;;7376463;19;20537;-84
2022/03/25 12:54:21;;;;;;;43.88;22.00;;;;;;;;;;7391281;19;20007;-84
2022/03/25 12:56:54;;;;;;;41.42;22.15;;;;;;;;;;7386032;19;20006;-83
2022/03/25 12:59:26;;;;;;;46.25;22.45;;;;;;;;;;7372489;19;20018;-85
2022/03/25 13:01:51;;;;;;;42.72;21.80;;;;;;;;;;7372357;19;20553;-91
2022/03/25 13:04:25;;;;;;;43.63;22.67;;;;;;;;;;7346733;19;20285;-87
2022/03/25 13:06:56;;;;;;;45.38;22.83;;;;;;;;;;7347800;19;21108;-87
2022/03/25 13:09:21;;;;;;;39.80;23.02;;;;;;;;;;7361433;19;20026;-86
2022/03/25 13:11:53;;;;;;;49.53;24.52;;;;;;;;;;7373926;19;20010;-87
2022/03/25 13:14:19;;;;;;;44.13;23.90;;;;;;;;;;7374010;19;20798;-85
2022/03/25 13:16:50;;;;;;;38.80;22.60;;;;;;;;;;7375051;19;20074;-85
2022/03/25 13:19:16;;;;;;;42.97;22.05;;;;;;;;;;7367706;19;20013;-91
2022/03/25 13:21:43;;;;;;;44.45;23.65;;;;;;;;;;7373511;19;20717;-87
2022/03/25 13:24:08;;;;;;;46.25;23.15;;;;;;;;;;7372886;19;20014;-86
2022/03/25 13:26:35;;;;;;;42.65;23.92;;;;;;;;;;7347998;19;20014;-88
2022/03/25 13:29:01;;;;;;;46.90;23.50;;;;;;;;;;7377769;19;20022;-88
2022/03/25 13:31:26;;;;;;;44.07;22.93;;;;;;;;;;7365738;19;20010;-88
2022/03/25 13:33:52;;;;;;;42.67;23.13;;;;;;;;;;7372767;19;20049;-84
2022/03/25 13:36:25;;;;;;;49.45;24.63;;;;;;;;;;7381438;19;20005;-87
2022/03/25 13:38:52;;;;;;;49.05;23.73;;;;;;;;;;7388924;19;20003;-83
2022/03/25 13:41:18;;;;;;;41.45;23.35;;;;;;;;;;7388210;19;20845;-83
2022/03/25 13:43:48;;;;;;;45.85;24.00;;;;;;;;;;7385402;19;20149;-83
2022/03/25 13:46:19;;;;;;;39.08;22.48;;;;;;;;;;7386256;19;20011;-85
2022/03/25 13:48:45;;;;;;;42.35;23.40;;;;;;;;;;7385493;19;20018;-83
2022/03/25 13:51:16;;;;;;;44.80;24.25;;;;;;;;;;7386829;19;20476;-83
2022/03/25 13:53:42;;;;;;;38.45;21.83;;;;;;;;;;7389234;19;20014;-84
2022/03/25 13:56:21;;;;;;;40.55;22.33;;;;;;;;;;7382430;19;20021;-86
2022/03/25 13:58:49;;;;;;;38.50;21.73;;;;;;;;;;7387348;19;20021;-84
2022/03/25 14:01:14;;;;;;;42.90;22.58;;;;;;;;;;7384130;19;20003;-84
2022/03/25 14:03:40;;;;;;;45.05;23.42;;;;;;;;;;7381197;19;20033;-83
2022/03/25 14:06:08;;;;;;;42.35;22.40;;;;;;;;;;7386455;19;20828;-86
2022/03/25 14:08:34;;;;;;;43.25;23.52;;;;;;;;;;7384822;19;20011;-85
2022/03/25 14:11:00;;;;;;;42.08;23.02;;;;;;;;;;7385678;19;20007;-83
2022/03/25 14:13:25;;;;;;;45.15;22.83;;;;;;;;;;7384143;19;20470;-89
2022/03/25 14:15:50;;;;;;;42.83;22.58;;;;;;;;;;7375580;19;20019;-84
2022/03/25 14:18:16;;;;;;;43.63;23.63;;;;;;;;;;7381315;19;20041;-85
2022/03/25 14:20:41;;;;;;;46.28;24.10;;;;;;;;;;7379546;19;20206;-86
2022/03/25 14:23:08;;;;;;;44.00;23.10;;;;;;;;;;7384912;19;20006;-86
2022/03/25 14:25:34;;;;;;;47.40;24.35;;;;;;;;;;7380624;19;20114;-89
2022/03/25 14:28:05;;;;;;;47.08;24.73;;;;;;;;;;7381020;19;20010;-83
2022/03/25 14:30:30;;;;;;;44.17;23.33;;;;;;;;;;7385640;19;20017;-85
2022/03/25 14:32:56;;;;;;;45.95;24.15;;;;;;;;;;7381528;19;20457;-87
2022/03/25 14:35:22;;;;;;;44.65;25.27;;;;;;;;;;7383171;19;20002;-83
2022/03/25 14:37:47;;;;;;;56.85;28.10;;;;;;;;;;7384151;19;20115;-84
2022/03/25 14:40:13;;;;;;;47.85;26.50;;;;;;;;;;7379639;19;20030;-87
2022/03/25 14:42:38;;;;;;;49.63;26.85;;;;;;;;;;7378112;19;20026;-86
2022/03/25 14:45:04;;;;;;;49.50;25.77;;;;;;;;;;7382690;19;20003;-85
2022/03/25 14:47:30;;;;;;;51.83;28.98;;;;;;;;;;7374815;19;20838;-87
2022/03/25 14:49:55;;;;;;;53.67;28.00;;;;;;;;;;7381011;19;20342;-84
2022/03/25 14:52:20;;;;;;;56.53;29.17;;;;;;;;;;7379928;19;20006;-92
2022/03/25 14:54:46;;;;;;;51.80;28.00;;;;;;;;;;7373903;19;20642;-87
2022/03/25 14:57:11;;;;;;;46.03;28.13;;;;;;;;;;7377613;19;20577;-88
2022/03/25 14:59:39;;;;;;;51.15;28.38;;;;;;;;;;7378679;19;20010;-86
2022/03/25 15:02:05;;;;;;;55.33;30.02;;;;;;;;;;7368259;19;20493;-86
2022/03/25 15:04:30;;;;;;;57.65;31.05;;;;;;;;;;7384356;19;20011;-85
2022/03/25 15:06:58;;;;;;;54.45;31.60;;;;;;;;;;7383871;19;20033;-87
2022/03/25 15:09:24;;;;;;;46.85;28.75;;;;;;;;;;7385887;19;20010;-89
2022/03/25 15:11:50;;;;;;;51.88;29.85;;;;;;;;;;7376638;19;20924;-85
2022/03/25 15:14:15;;;;;;;54.80;30.40;;;;;;;;;;7384742;19;20029;-84
2022/03/25 15:16:40;;;;;;;47.97;27.30;;;;;;;;;;7387497;19;20109;-89
2022/03/25 15:19:05;;;;;;;51.70;28.30;;;;;;;;;;7379651;19;20018;-85
2022/03/25 15:21:30;;;;;;;54.87;30.37;;;;;;;;;;7380904;19;20385;-87
2022/03/25 15:23:56;;;;;;;52.43;29.93;;;;;;;;;;7381742;19;20263;-83
2022/03/25 15:26:21;;;;;;;49.03;29.98;;;;;;;;;;7380045;19;20592;-86
2022/03/25 15:28:46;;;;;;;57.37;31.63;;;;;;;;;;7371695;19;20010;-88
2022/03/25 15:36:40;;;;;;;56.00;30.83;;;;;;;;;;7379785;19;20320;-86
2022/03/25 15:39:05;;;;;;;55.78;30.27;;;;;;;;;;7380371;19;20339;-87
2022/03/25 15:41:30;;;;;;;47.90;28.88;;;;;;;;;;7380411;19;20082;-86
2022/03/25 15:43:56;;;;;;;54.27;28.90;;;;;;;;;;7377021;19;20002;-85
2022/03/25 15:46:21;;;;;;;51.45;28.20;;;;;;;;;;7382278;19;20290;-85
2022/03/25 15:48:46;;;;;;;52.47;27.93;;;;;;;;;;7380293;19;20025;-85
2022/03/25 15:51:11;;;;;;;51.33;28.67;;;;;;;;;;7384416;19;20267;-90
2022/03/25 15:53:38;;;;;;;53.22;27.73;;;;;;;;;;7384002;19;20011;-85
2022/03/25 15:56:03;;;;;;;50.35;30.58;;;;;;;;;;7372985;19;20002;-84
2022/03/25 15:58:28;;;;;;;54.22;31.33;;;;;;;;;;7381293;19;20027;-85
2022/03/25 16:00:54;;;;;;;55.90;31.50;;;;;;;;;;7381282;19;20009;-86
2022/03/25 16:03:20;;;;;;;52.92;30.65;;;;;;;;;;7370921;19;20405;-86
2022/03/25 16:05:48;;;;;;;52.47;30.33;;;;;;;;;;7381724;19;19999;-86
2022/03/25 16:08:14;;;;;;;60.15;32.30;;;;;;;;;;7382095;19;20010;-85
2022/03/25 16:10:40;;;;;;;56.05;29.05;;;;;;;;;;7385309;19;20006;-89
2022/03/25 16:13:06;;;;;;;54.55;30.15;;;;;;;;;;7374118;19;20081;-90
2022/03/25 16:15:31;;;;;;;54.38;30.75;;;;;;;;;;7382964;19;20018;-91
2022/03/25 16:17:57;;;;;;;53.20;30.00;;;;;;;;;;7377670;19;20017;-89
2022/03/25 16:20:22;;;;;;;56.15;29.55;;;;;;;;;;7380417;19;20573;-90
2022/03/25 16:22:48;;;;;;;57.05;30.63;;;;;;;;;;7377950;19;20027;-91
2022/03/25 16:25:14;;;;;;;51.05;29.08;;;;;;;;;;7381180;19;20030;-90
2022/03/25 16:27:43;;;;;;;62.33;30.60;;;;;;;;;;7366065;19;20732;-90
2022/03/25 16:30:09;;;;;;;54.92;29.85;;;;;;;;;;7366089;19;20006;-90